sensor_id;sensor_type;location;lat;lon;timestamp;P1;durP1;ratioP1;P2;durP2;ratioP2
25409;SDS011;13339;50.840;4.346;2023-06-14T00:01:32;13.20;;;8.37;;
25409;SDS011;13339;50.840;4.346;2023-06-14T00:03:59;18.43;;;7.73;;
25409;SDS011;13339;50.840;4.346;2023-06-14T00:06:26;16.13;;;7.70;;
25409;SDS011;13339;50.840;4.346;2023-06-14T00:08:53;12.83;;;7.17;;
25409;SDS011;13339;50.840;4.346;2023-06-14T00:11:19;9.50;;;7.30;;
25409;SDS011;13339;50.840;4.346;2023-06-14T00:13:45;10.53;;;7.00;;
25409;SDS011;13339;50.840;4.346;2023-06-14T00:16:11;10.63;;;7.07;;
25409;SDS011;13339;50.840;4.346;2023-06-14T00:18:37;11.27;;;7.47;;
25409;SDS011;13339;50.840;4.346;2023-06-14T00:21:03;13.50;;;7.50;;
25409;SDS011;13339;50.840;4.346;2023-06-14T00:23:29;14.17;;;7.43;;
25409;SDS011;13339;50.840;4.346;2023-06-14T00:25:55;9.33;;;7.50;;
25409;SDS011;13339;50.840;4.346;2023-06-14T00:28:21;12.90;;;7.73;;
25409;SDS011;13339;50.840;4.346;2023-06-14T00:30:46;9.83;;;7.13;;
25409;SDS011;13339;50.840;4.346;2023-06-14T00:33:12;14.87;;;6.93;;
25409;SDS011;13339;50.840;4.346;2023-06-14T00:35:38;13.27;;;7.50;;
25409;SDS011;13339;50.840;4.346;2023-06-14T00:38:03;9.53;;;7.40;;
25409;SDS011;13339;50.840;4.346;2023-06-14T00:40:29;15.63;;;7.60;;
25409;SDS011;13339;50.840;4.346;2023-06-14T00:42:55;13.27;;;7.87;;
25409;SDS011;13339;50.840;4.346;2023-06-14T00:45:20;11.50;;;7.27;;
25409;SDS011;13339;50.840;4.346;2023-06-14T00:47:46;12.33;;;7.33;;
25409;SDS011;13339;50.840;4.346;2023-06-14T00:50:13;8.47;;;7.53;;
25409;SDS011;13339;50.840;4.346;2023-06-14T00:52:39;15.50;;;7.80;;
25409;SDS011;13339;50.840;4.346;2023-06-14T00:55:05;11.27;;;7.60;;
25409;SDS011;13339;50.840;4.346;2023-06-14T00:57:31;12.67;;;8.03;;
25409;SDS011;13339;50.840;4.346;2023-06-14T00:59:57;19.93;;;7.67;;
25409;SDS011;13339;50.840;4.346;2023-06-14T01:02:22;11.83;;;7.30;;
25409;SDS011;13339;50.840;4.346;2023-06-14T01:04:49;13.90;;;7.60;;
25409;SDS011;13339;50.840;4.346;2023-06-14T01:13:20;12.30;;;7.90;;
25409;SDS011;13339;50.840;4.346;2023-06-14T01:15:52;10.53;;;7.73;;
25409;SDS011;13339;50.840;4.346;2023-06-14T01:18:19;9.50;;;7.27;;
25409;SDS011;13339;50.840;4.346;2023-06-14T01:20:45;12.87;;;7.10;;
25409;SDS011;13339;50.840;4.346;2023-06-14T01:23:17;11.43;;;7.73;;
25409;SDS011;13339;50.840;4.346;2023-06-14T01:25:44;8.30;;;7.30;;
25409;SDS011;13339;50.840;4.346;2023-06-14T01:28:11;10.17;;;7.73;;
25409;SDS011;13339;50.840;4.346;2023-06-14T01:30:43;15.57;;;8.33;;
25409;SDS011;13339;50.840;4.346;2023-06-14T01:33:14;12.53;;;8.30;;
25409;SDS011;13339;50.840;4.346;2023-06-14T01:35:43;10.67;;;8.73;;
25409;SDS011;13339;50.840;4.346;2023-06-14T01:38:10;16.10;;;8.47;;
25409;SDS011;13339;50.840;4.346;2023-06-14T01:40:37;10.17;;;8.50;;
25409;SDS011;13339;50.840;4.346;2023-06-14T01:43:04;12.70;;;8.20;;
25409;SDS011;13339;50.840;4.346;2023-06-14T01:45:31;11.03;;;8.33;;
25409;SDS011;13339;50.840;4.346;2023-06-14T01:47:59;14.03;;;7.77;;
25409;SDS011;13339;50.840;4.346;2023-06-14T01:50:27;18.73;;;9.13;;
25409;SDS011;13339;50.840;4.346;2023-06-14T01:52:56;12.17;;;9.03;;
25409;SDS011;13339;50.840;4.346;2023-06-14T01:55:22;19.70;;;8.03;;
25409;SDS011;13339;50.840;4.346;2023-06-14T01:57:53;12.80;;;8.40;;
25409;SDS011;13339;50.840;4.346;2023-06-14T02:00:19;14.20;;;8.50;;
25409;SDS011;13339;50.840;4.346;2023-06-14T02:02:46;11.63;;;8.67;;
25409;SDS011;13339;50.840;4.346;2023-06-14T02:05:12;20.83;;;8.57;;
25409;SDS011;13339;50.840;4.346;2023-06-14T02:07:38;15.73;;;8.67;;
25409;SDS011;13339;50.840;4.346;2023-06-14T02:10:04;13.80;;;8.57;;
25409;SDS011;13339;50.840;4.346;2023-06-14T02:12:30;12.60;;;9.00;;
25409;SDS011;13339;50.840;4.346;2023-06-14T02:14:55;14.10;;;8.70;;
25409;SDS011;13339;50.840;4.346;2023-06-14T02:17:21;14.30;;;8.13;;
25409;SDS011;13339;50.840;4.346;2023-06-14T02:19:47;10.87;;;8.60;;
25409;SDS011;13339;50.840;4.346;2023-06-14T02:22:13;10.30;;;8.43;;
25409;SDS011;13339;50.840;4.346;2023-06-14T02:24:40;12.70;;;8.80;;
25409;SDS011;13339;50.840;4.346;2023-06-14T02:27:06;9.50;;;8.50;;
25409;SDS011;13339;50.840;4.346;2023-06-14T02:29:33;17.27;;;9.60;;
25409;SDS011;13339;50.840;4.346;2023-06-14T02:31:59;16.70;;;9.50;;
25409;SDS011;13339;50.840;4.346;2023-06-14T02:34:24;12.10;;;9.47;;
25409;SDS011;13339;50.840;4.346;2023-06-14T02:36:50;10.93;;;9.43;;
25409;SDS011;13339;50.840;4.346;2023-06-14T02:39:17;12.53;;;8.93;;
25409;SDS011;13339;50.840;4.346;2023-06-14T02:41:45;16.93;;;9.43;;
25409;SDS011;13339;50.840;4.346;2023-06-14T02:44:12;16.00;;;9.33;;
25409;SDS011;13339;50.840;4.346;2023-06-14T02:46:38;15.50;;;9.07;;
25409;SDS011;13339;50.840;4.346;2023-06-14T02:49:04;13.07;;;9.03;;
25409;SDS011;13339;50.840;4.346;2023-06-14T02:51:30;15.50;;;9.27;;
25409;SDS011;13339;50.840;4.346;2023-06-14T02:53:55;14.17;;;9.57;;
25409;SDS011;13339;50.840;4.346;2023-06-14T02:56:21;16.83;;;9.57;;
25409;SDS011;13339;50.840;4.346;2023-06-14T02:58:47;11.77;;;10.50;;
25409;SDS011;13339;50.840;4.346;2023-06-14T03:01:13;11.47;;;9.60;;
25409;SDS011;13339;50.840;4.346;2023-06-14T03:03:39;13.20;;;9.60;;
25409;SDS011;13339;50.840;4.346;2023-06-14T03:06:05;12.77;;;10.13;;
25409;SDS011;13339;50.840;4.346;2023-06-14T03:08:31;16.07;;;9.80;;
25409;SDS011;13339;50.840;4.346;2023-06-14T03:11:03;18.57;;;10.67;;
25409;SDS011;13339;50.840;4.346;2023-06-14T03:13:30;16.67;;;10.40;;
25409;SDS011;13339;50.840;4.346;2023-06-14T03:15:57;15.33;;;10.00;;
25409;SDS011;13339;50.840;4.346;2023-06-14T03:18:23;19.03;;;10.00;;
25409;SDS011;13339;50.840;4.346;2023-06-14T03:20:48;14.17;;;10.43;;
25409;SDS011;13339;50.840;4.346;2023-06-14T03:23:16;13.83;;;9.70;;
25409;SDS011;13339;50.840;4.346;2023-06-14T03:25:42;11.47;;;10.10;;
25409;SDS011;13339;50.840;4.346;2023-06-14T03:28:07;13.10;;;9.93;;
25409;SDS011;13339;50.840;4.346;2023-06-14T03:30:33;13.53;;;10.60;;
25409;SDS011;13339;50.840;4.346;2023-06-14T03:32:59;14.90;;;10.13;;
25409;SDS011;13339;50.840;4.346;2023-06-14T03:35:28;10.67;;;9.57;;
25409;SDS011;13339;50.840;4.346;2023-06-14T03:37:54;15.57;;;10.13;;
25409;SDS011;13339;50.840;4.346;2023-06-14T03:40:20;15.33;;;9.63;;
25409;SDS011;13339;50.840;4.346;2023-06-14T03:42:46;13.33;;;10.33;;
25409;SDS011;13339;50.840;4.346;2023-06-14T03:45:12;15.37;;;9.90;;
25409;SDS011;13339;50.840;4.346;2023-06-14T03:47:37;18.37;;;10.30;;
25409;SDS011;13339;50.840;4.346;2023-06-14T03:50:03;13.20;;;9.80;;
25409;SDS011;13339;50.840;4.346;2023-06-14T03:52:30;14.70;;;9.40;;
25409;SDS011;13339;50.840;4.346;2023-06-14T03:54:57;15.27;;;10.63;;
25409;SDS011;13339;50.840;4.346;2023-06-14T03:57:25;14.00;;;10.33;;
25409;SDS011;13339;50.840;4.346;2023-06-14T03:59:51;15.33;;;9.83;;
25409;SDS011;13339;50.840;4.346;2023-06-14T04:02:17;16.63;;;9.40;;
25409;SDS011;13339;50.840;4.346;2023-06-14T04:04:43;20.20;;;10.40;;
25409;SDS011;13339;50.840;4.346;2023-06-14T04:07:12;14.73;;;10.33;;
25409;SDS011;13339;50.840;4.346;2023-06-14T04:09:38;14.30;;;9.47;;
25409;SDS011;13339;50.840;4.346;2023-06-14T04:12:05;13.13;;;9.17;;
25409;SDS011;13339;50.840;4.346;2023-06-14T04:14:31;15.53;;;9.90;;
25409;SDS011;13339;50.840;4.346;2023-06-14T04:17:00;14.43;;;10.07;;
25409;SDS011;13339;50.840;4.346;2023-06-14T04:19:25;11.90;;;9.83;;
25409;SDS011;13339;50.840;4.346;2023-06-14T04:21:51;20.53;;;9.97;;
25409;SDS011;13339;50.840;4.346;2023-06-14T04:24:17;11.70;;;9.90;;
25409;SDS011;13339;50.840;4.346;2023-06-14T04:26:43;11.93;;;9.33;;
25409;SDS011;13339;50.840;4.346;2023-06-14T04:29:18;15.33;;;9.53;;
25409;SDS011;13339;50.840;4.346;2023-06-14T04:31:44;18.03;;;10.33;;
25409;SDS011;13339;50.840;4.346;2023-06-14T04:34:11;24.17;;;10.67;;
25409;SDS011;13339;50.840;4.346;2023-06-14T04:36:43;14.00;;;9.57;;
25409;SDS011;13339;50.840;4.346;2023-06-14T04:39:21;15.70;;;10.43;;
25409;SDS011;13339;50.840;4.346;2023-06-14T04:41:47;12.67;;;9.40;;
25409;SDS011;13339;50.840;4.346;2023-06-14T04:44:17;14.57;;;9.70;;
25409;SDS011;13339;50.840;4.346;2023-06-14T04:46:44;11.17;;;9.27;;
25409;SDS011;13339;50.840;4.346;2023-06-14T04:49:14;14.40;;;9.77;;
25409;SDS011;13339;50.840;4.346;2023-06-14T04:51:40;14.33;;;9.73;;
25409;SDS011;13339;50.840;4.346;2023-06-14T04:54:07;16.23;;;9.93;;
25409;SDS011;13339;50.840;4.346;2023-06-14T04:56:35;17.80;;;9.83;;
25409;SDS011;13339;50.840;4.346;2023-06-14T04:59:02;13.83;;;9.93;;
25409;SDS011;13339;50.840;4.346;2023-06-14T05:01:31;11.37;;;9.93;;
25409;SDS011;13339;50.840;4.346;2023-06-14T05:03:58;19.57;;;10.57;;
25409;SDS011;13339;50.840;4.346;2023-06-14T05:06:24;17.60;;;10.90;;
25409;SDS011;13339;50.840;4.346;2023-06-14T05:08:49;16.13;;;10.10;;
25409;SDS011;13339;50.840;4.346;2023-06-14T05:11:15;13.77;;;9.53;;
25409;SDS011;13339;50.840;4.346;2023-06-14T05:13:42;18.07;;;10.33;;
25409;SDS011;13339;50.840;4.346;2023-06-14T05:16:09;18.07;;;10.63;;
25409;SDS011;13339;50.840;4.346;2023-06-14T05:18:36;17.13;;;9.47;;
25409;SDS011;13339;50.840;4.346;2023-06-14T05:21:02;20.77;;;10.57;;
25409;SDS011;13339;50.840;4.346;2023-06-14T05:23:29;12.93;;;10.83;;
25409;SDS011;13339;50.840;4.346;2023-06-14T05:25:55;17.70;;;10.07;;
25409;SDS011;13339;50.840;4.346;2023-06-14T05:28:21;13.50;;;10.13;;
25409;SDS011;13339;50.840;4.346;2023-06-14T05:30:47;21.80;;;10.07;;
25409;SDS011;13339;50.840;4.346;2023-06-14T05:33:13;11.57;;;9.43;;
25409;SDS011;13339;50.840;4.346;2023-06-14T05:35:38;19.70;;;11.27;;
25409;SDS011;13339;50.840;4.346;2023-06-14T05:38:04;16.90;;;10.43;;
25409;SDS011;13339;50.840;4.346;2023-06-14T05:40:30;22.90;;;10.53;;
25409;SDS011;13339;50.840;4.346;2023-06-14T05:42:56;17.83;;;9.93;;
25409;SDS011;13339;50.840;4.346;2023-06-14T05:45:22;17.70;;;10.50;;
25409;SDS011;13339;50.840;4.346;2023-06-14T05:47:47;19.90;;;10.30;;
25409;SDS011;13339;50.840;4.346;2023-06-14T05:50:13;15.50;;;10.10;;
25409;SDS011;13339;50.840;4.346;2023-06-14T05:52:38;19.37;;;10.33;;
25409;SDS011;13339;50.840;4.346;2023-06-14T05:55:04;19.20;;;9.67;;
25409;SDS011;13339;50.840;4.346;2023-06-14T05:57:31;23.40;;;10.37;;
25409;SDS011;13339;50.840;4.346;2023-06-14T05:59:56;18.30;;;10.27;;
25409;SDS011;13339;50.840;4.346;2023-06-14T06:02:22;16.63;;;10.40;;
25409;SDS011;13339;50.840;4.346;2023-06-14T06:04:47;24.07;;;9.70;;
25409;SDS011;13339;50.840;4.346;2023-06-14T06:07:13;20.73;;;10.90;;
25409;SDS011;13339;50.840;4.346;2023-06-14T06:09:38;17.57;;;9.80;;
25409;SDS011;13339;50.840;4.346;2023-06-14T06:12:05;18.83;;;9.67;;
25409;SDS011;13339;50.840;4.346;2023-06-14T06:14:32;20.23;;;9.73;;
25409;SDS011;13339;50.840;4.346;2023-06-14T06:16:57;18.70;;;9.53;;
25409;SDS011;13339;50.840;4.346;2023-06-14T06:19:23;23.43;;;10.27;;
25409;SDS011;13339;50.840;4.346;2023-06-14T06:21:49;12.17;;;9.47;;
25409;SDS011;13339;50.840;4.346;2023-06-14T06:24:14;17.20;;;10.00;;
25409;SDS011;13339;50.840;4.346;2023-06-14T06:26:40;20.50;;;9.60;;
25409;SDS011;13339;50.840;4.346;2023-06-14T06:29:06;21.30;;;9.83;;
25409;SDS011;13339;50.840;4.346;2023-06-14T06:31:32;11.77;;;9.00;;
25409;SDS011;13339;50.840;4.346;2023-06-14T06:33:57;24.37;;;10.03;;
25409;SDS011;13339;50.840;4.346;2023-06-14T06:36:23;17.23;;;9.50;;
25409;SDS011;13339;50.840;4.346;2023-06-14T06:38:49;14.80;;;8.30;;
25409;SDS011;13339;50.840;4.346;2023-06-14T06:41:15;13.50;;;9.17;;
25409;SDS011;13339;50.840;4.346;2023-06-14T06:43:41;17.07;;;9.63;;
25409;SDS011;13339;50.840;4.346;2023-06-14T06:46:06;21.53;;;8.80;;
25409;SDS011;13339;50.840;4.346;2023-06-14T06:48:32;17.63;;;9.13;;
25409;SDS011;13339;50.840;4.346;2023-06-14T06:50:57;15.10;;;8.23;;
25409;SDS011;13339;50.840;4.346;2023-06-14T06:53:23;23.03;;;9.57;;
25409;SDS011;13339;50.840;4.346;2023-06-14T06:55:48;10.10;;;8.40;;
25409;SDS011;13339;50.840;4.346;2023-06-14T06:58:14;16.60;;;8.67;;
25409;SDS011;13339;50.840;4.346;2023-06-14T07:00:40;13.17;;;8.97;;
25409;SDS011;13339;50.840;4.346;2023-06-14T07:03:06;16.37;;;9.47;;
25409;SDS011;13339;50.840;4.346;2023-06-14T07:05:31;17.43;;;8.70;;
25409;SDS011;13339;50.840;4.346;2023-06-14T07:07:57;17.13;;;9.87;;
25409;SDS011;13339;50.840;4.346;2023-06-14T07:10:23;18.17;;;9.33;;
25409;SDS011;13339;50.840;4.346;2023-06-14T07:12:49;12.43;;;8.20;;
25409;SDS011;13339;50.840;4.346;2023-06-14T07:15:15;15.30;;;8.07;;
25409;SDS011;13339;50.840;4.346;2023-06-14T07:17:41;12.87;;;8.10;;
25409;SDS011;13339;50.840;4.346;2023-06-14T07:20:07;13.63;;;8.53;;
25409;SDS011;13339;50.840;4.346;2023-06-14T07:22:38;17.27;;;7.90;;
25409;SDS011;13339;50.840;4.346;2023-06-14T07:25:05;18.10;;;8.87;;
25409;SDS011;13339;50.840;4.346;2023-06-14T07:27:33;13.53;;;8.27;;
25409;SDS011;13339;50.840;4.346;2023-06-14T07:29:59;16.13;;;8.47;;
25409;SDS011;13339;50.840;4.346;2023-06-14T07:32:24;9.93;;;7.93;;
25409;SDS011;13339;50.840;4.346;2023-06-14T07:34:50;13.70;;;8.20;;
25409;SDS011;13339;50.840;4.346;2023-06-14T07:37:15;13.43;;;7.37;;
25409;SDS011;13339;50.840;4.346;2023-06-14T07:39:41;12.67;;;7.73;;
25409;SDS011;13339;50.840;4.346;2023-06-14T07:42:07;23.93;;;7.80;;
25409;SDS011;13339;50.840;4.346;2023-06-14T07:44:32;10.70;;;7.90;;
25409;SDS011;13339;50.840;4.346;2023-06-14T07:46:58;11.68;;;7.30;;
25409;SDS011;13339;50.840;4.346;2023-06-14T07:49:24;19.63;;;7.10;;
25409;SDS011;13339;50.840;4.346;2023-06-14T07:51:50;12.07;;;7.70;;
25409;SDS011;13339;50.840;4.346;2023-06-14T07:54:16;9.38;;;7.32;;
25409;SDS011;13339;50.840;4.346;2023-06-14T07:56:42;14.13;;;7.55;;
25409;SDS011;13339;50.840;4.346;2023-06-14T07:59:08;13.90;;;7.28;;
25409;SDS011;13339;50.840;4.346;2023-06-14T08:01:33;20.50;;;7.53;;
25409;SDS011;13339;50.840;4.346;2023-06-14T08:03:59;16.50;;;6.97;;
25409;SDS011;13339;50.840;4.346;2023-06-14T08:06:26;9.73;;;7.03;;
25409;SDS011;13339;50.840;4.346;2023-06-14T08:08:51;13.23;;;7.43;;
25409;SDS011;13339;50.840;4.346;2023-06-14T08:11:17;15.02;;;6.75;;
25409;SDS011;13339;50.840;4.346;2023-06-14T08:13:42;16.65;;;7.30;;
25409;SDS011;13339;50.840;4.346;2023-06-14T08:16:08;18.02;;;7.63;;
25409;SDS011;13339;50.840;4.346;2023-06-14T08:18:34;18.63;;;7.03;;
25409;SDS011;13339;50.840;4.346;2023-06-14T08:20:59;17.85;;;7.78;;
25409;SDS011;13339;50.840;4.346;2023-06-14T08:23:25;11.10;;;7.28;;
25409;SDS011;13339;50.840;4.346;2023-06-14T08:25:50;10.43;;;6.97;;
25409;SDS011;13339;50.840;4.346;2023-06-14T08:28:17;12.95;;;7.45;;
25409;SDS011;13339;50.840;4.346;2023-06-14T08:30:43;16.23;;;7.25;;
25409;SDS011;13339;50.840;4.346;2023-06-14T08:33:08;7.80;;;6.78;;
25409;SDS011;13339;50.840;4.346;2023-06-14T08:35:34;11.90;;;7.20;;
25409;SDS011;13339;50.840;4.346;2023-06-14T08:38:02;11.32;;;7.13;;
25409;SDS011;13339;50.840;4.346;2023-06-14T08:40:29;9.85;;;7.85;;
25409;SDS011;13339;50.840;4.346;2023-06-14T08:42:55;10.15;;;7.68;;
25409;SDS011;13339;50.840;4.346;2023-06-14T08:45:22;12.45;;;7.55;;
25409;SDS011;13339;50.840;4.346;2023-06-14T08:47:48;13.38;;;7.43;;
25409;SDS011;13339;50.840;4.346;2023-06-14T08:50:19;11.07;;;7.82;;
25409;SDS011;13339;50.840;4.346;2023-06-14T08:52:49;10.98;;;8.27;;
25409;SDS011;13339;50.840;4.346;2023-06-14T08:55:18;15.48;;;7.43;;
25409;SDS011;13339;50.840;4.346;2023-06-14T08:57:45;14.23;;;7.45;;
25409;SDS011;13339;50.840;4.346;2023-06-14T09:00:13;11.95;;;7.32;;
25409;SDS011;13339;50.840;4.346;2023-06-14T09:02:39;15.23;;;7.63;;
25409;SDS011;13339;50.840;4.346;2023-06-14T09:05:11;19.05;;;8.30;;
25409;SDS011;13339;50.840;4.346;2023-06-14T09:07:38;15.52;;;7.57;;
25409;SDS011;13339;50.840;4.346;2023-06-14T09:10:07;15.05;;;8.10;;
25409;SDS011;13339;50.840;4.346;2023-06-14T09:12:37;19.35;;;8.32;;
25409;SDS011;13339;50.840;4.346;2023-06-14T09:15:03;18.20;;;8.48;;
25409;SDS011;13339;50.840;4.346;2023-06-14T09:17:40;11.73;;;7.65;;
25409;SDS011;13339;50.840;4.346;2023-06-14T09:20:06;12.20;;;8.90;;
25409;SDS011;13339;50.840;4.346;2023-06-14T09:22:35;15.15;;;8.70;;
25409;SDS011;13339;50.840;4.346;2023-06-14T09:25:05;15.98;;;8.40;;
25409;SDS011;13339;50.840;4.346;2023-06-14T09:27:31;10.80;;;8.80;;
25409;SDS011;13339;50.840;4.346;2023-06-14T09:29:57;16.15;;;8.50;;
25409;SDS011;13339;50.840;4.346;2023-06-14T09:32:22;17.67;;;7.72;;
25409;SDS011;13339;50.840;4.346;2023-06-14T09:34:48;10.95;;;7.45;;
25409;SDS011;13339;50.840;4.346;2023-06-14T09:37:30;11.23;;;7.68;;
25409;SDS011;13339;50.840;4.346;2023-06-14T09:39:56;17.92;;;7.75;;
25409;SDS011;13339;50.840;4.346;2023-06-14T09:42:22;11.38;;;7.97;;
25409;SDS011;13339;50.840;4.346;2023-06-14T09:44:51;15.13;;;8.13;;
25409;SDS011;13339;50.840;4.346;2023-06-14T09:47:17;12.30;;;7.78;;
25409;SDS011;13339;50.840;4.346;2023-06-14T09:49:43;10.93;;;7.43;;
25409;SDS011;13339;50.840;4.346;2023-06-14T09:52:10;14.02;;;7.53;;
25409;SDS011;13339;50.840;4.346;2023-06-14T09:54:42;11.20;;;7.90;;
25409;SDS011;13339;50.840;4.346;2023-06-14T09:57:12;22.70;;;7.55;;
25409;SDS011;13339;50.840;4.346;2023-06-14T09:59:42;12.20;;;7.65;;
25409;SDS011;13339;50.840;4.346;2023-06-14T10:02:20;12.40;;;7.63;;
25409;SDS011;13339;50.840;4.346;2023-06-14T10:04:51;15.43;;;8.18;;
25409;SDS011;13339;50.840;4.346;2023-06-14T10:07:22;9.65;;;7.50;;
25409;SDS011;13339;50.840;4.346;2023-06-14T10:09:52;10.70;;;7.57;;
25409;SDS011;13339;50.840;4.346;2023-06-14T10:12:19;21.83;;;8.15;;
25409;SDS011;13339;50.840;4.346;2023-06-14T10:14:49;13.45;;;7.30;;
25409;SDS011;13339;50.840;4.346;2023-06-14T10:17:30;11.13;;;6.28;;
25409;SDS011;13339;50.840;4.346;2023-06-14T10:20:50;14.18;;;6.35;;
25409;SDS011;13339;50.840;4.346;2023-06-14T10:23:02;12.63;;;6.97;;
25409;SDS011;13339;50.840;4.346;2023-06-14T10:25:33;10.18;;;7.07;;
25409;SDS011;13339;50.840;4.346;2023-06-14T10:28:03;21.85;;;6.43;;
25409;SDS011;13339;50.840;4.346;2023-06-14T10:30:40;11.43;;;6.68;;
25409;SDS011;13339;50.840;4.346;2023-06-14T10:33:29;16.25;;;6.72;;
25409;SDS011;13339;50.840;4.346;2023-06-14T10:36:08;7.43;;;6.68;;
25409;SDS011;13339;50.840;4.346;2023-06-14T10:39:05;17.70;;;6.88;;
25409;SDS011;13339;50.840;4.346;2023-06-14T10:41:52;14.57;;;6.85;;
25409;SDS011;13339;50.840;4.346;2023-06-14T10:46:52;10.75;;;6.82;;
25409;SDS011;13339;50.840;4.346;2023-06-14T10:49:18;8.95;;;6.50;;
25409;SDS011;13339;50.840;4.346;2023-06-14T10:51:45;13.77;;;7.18;;
25409;SDS011;13339;50.840;4.346;2023-06-14T10:54:14;10.73;;;6.40;;
25409;SDS011;13339;50.840;4.346;2023-06-14T10:56:47;12.07;;;6.72;;
25409;SDS011;13339;50.840;4.346;2023-06-14T10:59:13;10.88;;;6.90;;
25409;SDS011;13339;50.840;4.346;2023-06-14T11:04:14;13.18;;;6.97;;
25409;SDS011;13339;50.840;4.346;2023-06-14T11:06:46;9.25;;;6.63;;
25409;SDS011;13339;50.840;4.346;2023-06-14T11:12:07;22.48;;;6.68;;
25409;SDS011;13339;50.840;4.346;2023-06-14T11:14:36;9.07;;;6.40;;
25409;SDS011;13339;50.840;4.346;2023-06-14T11:17:01;7.38;;;6.10;;
25409;SDS011;13339;50.840;4.346;2023-06-14T11:19:27;11.18;;;6.90;;
25409;SDS011;13339;50.840;4.346;2023-06-14T11:21:54;9.60;;;6.05;;
25409;SDS011;13339;50.840;4.346;2023-06-14T11:24:20;9.27;;;6.13;;
25409;SDS011;13339;50.840;4.346;2023-06-14T11:26:46;18.05;;;6.80;;
25409;SDS011;13339;50.840;4.346;2023-06-14T11:29:12;13.82;;;6.55;;
25409;SDS011;13339;50.840;4.346;2023-06-14T11:31:42;15.85;;;6.82;;
25409;SDS011;13339;50.840;4.346;2023-06-14T11:34:10;12.82;;;6.07;;
25409;SDS011;13339;50.840;4.346;2023-06-14T11:36:38;10.73;;;6.00;;
25409;SDS011;13339;50.840;4.346;2023-06-14T11:39:05;13.45;;;6.30;;
25409;SDS011;13339;50.840;4.346;2023-06-14T11:41:36;9.25;;;5.82;;
25409;SDS011;13339;50.840;4.346;2023-06-14T11:44:09;11.80;;;6.47;;
25409;SDS011;13339;50.840;4.346;2023-06-14T11:46:35;10.40;;;6.25;;
25409;SDS011;13339;50.840;4.346;2023-06-14T11:49:01;10.43;;;6.20;;
25409;SDS011;13339;50.840;4.346;2023-06-14T11:51:32;14.57;;;6.18;;
25409;SDS011;13339;50.840;4.346;2023-06-14T11:53:59;17.65;;;7.03;;
25409;SDS011;13339;50.840;4.346;2023-06-14T11:56:26;6.45;;;5.68;;
25409;SDS011;13339;50.840;4.346;2023-06-14T11:58:52;13.77;;;6.75;;
25409;SDS011;13339;50.840;4.346;2023-06-14T12:01:21;7.78;;;6.05;;
25409;SDS011;13339;50.840;4.346;2023-06-14T12:03:50;12.13;;;5.78;;
25409;SDS011;13339;50.840;4.346;2023-06-14T12:06:25;13.13;;;6.13;;
25409;SDS011;13339;50.840;4.346;2023-06-14T12:08:55;8.57;;;5.85;;
25409;SDS011;13339;50.840;4.346;2023-06-14T12:11:21;9.13;;;6.28;;
25409;SDS011;13339;50.840;4.346;2023-06-14T12:13:47;12.02;;;6.60;;
25409;SDS011;13339;50.840;4.346;2023-06-14T12:16:14;13.90;;;6.13;;
25409;SDS011;13339;50.840;4.346;2023-06-14T12:18:40;8.75;;;5.43;;
25409;SDS011;13339;50.840;4.346;2023-06-14T12:21:08;7.57;;;5.18;;
25409;SDS011;13339;50.840;4.346;2023-06-14T12:23:45;9.27;;;5.40;;
25409;SDS011;13339;50.840;4.346;2023-06-14T12:26:17;9.77;;;5.90;;
25409;SDS011;13339;50.840;4.346;2023-06-14T12:28:44;13.15;;;6.13;;
25409;SDS011;13339;50.840;4.346;2023-06-14T12:31:11;15.52;;;5.95;;
25409;SDS011;13339;50.840;4.346;2023-06-14T12:33:37;7.88;;;4.97;;
25409;SDS011;13339;50.840;4.346;2023-06-14T12:36:07;14.23;;;5.75;;
25409;SDS011;13339;50.840;4.346;2023-06-14T12:38:34;6.90;;;5.35;;
25409;SDS011;13339;50.840;4.346;2023-06-14T12:41:00;12.20;;;5.72;;
25409;SDS011;13339;50.840;4.346;2023-06-14T12:43:25;7.20;;;4.90;;
25409;SDS011;13339;50.840;4.346;2023-06-14T12:45:51;9.05;;;5.10;;
25409;SDS011;13339;50.840;4.346;2023-06-14T12:48:17;10.50;;;5.40;;
25409;SDS011;13339;50.840;4.346;2023-06-14T12:50:42;8.68;;;5.13;;
25409;SDS011;13339;50.840;4.346;2023-06-14T12:53:08;7.47;;;5.32;;
25409;SDS011;13339;50.840;4.346;2023-06-14T12:55:34;11.10;;;5.47;;
25409;SDS011;13339;50.840;4.346;2023-06-14T12:57:59;12.40;;;5.78;;
25409;SDS011;13339;50.840;4.346;2023-06-14T13:00:25;6.50;;;4.80;;
25409;SDS011;13339;50.840;4.346;2023-06-14T13:02:51;11.07;;;5.18;;
25409;SDS011;13339;50.840;4.346;2023-06-14T13:05:17;8.48;;;5.22;;
25409;SDS011;13339;50.840;4.346;2023-06-14T13:07:43;12.48;;;5.40;;
25409;SDS011;13339;50.840;4.346;2023-06-14T13:10:09;10.70;;;5.38;;
25409;SDS011;13339;50.840;4.346;2023-06-14T13:12:35;5.63;;;4.78;;
25409;SDS011;13339;50.840;4.346;2023-06-14T13:15:01;10.73;;;5.38;;
25409;SDS011;13339;50.840;4.346;2023-06-14T13:17:27;8.75;;;5.32;;
25409;SDS011;13339;50.840;4.346;2023-06-14T13:19:53;7.95;;;5.13;;
25409;SDS011;13339;50.840;4.346;2023-06-14T13:22:18;5.47;;;4.70;;
25409;SDS011;13339;50.840;4.346;2023-06-14T13:24:44;8.48;;;4.97;;
25409;SDS011;13339;50.840;4.346;2023-06-14T13:27:10;8.73;;;4.93;;
25409;SDS011;13339;50.840;4.346;2023-06-14T13:29:36;11.55;;;5.35;;
25409;SDS011;13339;50.840;4.346;2023-06-14T13:32:02;15.18;;;5.05;;
25409;SDS011;13339;50.840;4.346;2023-06-14T13:34:28;9.65;;;4.30;;
25409;SDS011;13339;50.840;4.346;2023-06-14T13:36:54;9.75;;;4.78;;
25409;SDS011;13339;50.840;4.346;2023-06-14T13:39:20;13.82;;;4.68;;
25409;SDS011;13339;50.840;4.346;2023-06-14T13:41:46;7.20;;;4.35;;
25409;SDS011;13339;50.840;4.346;2023-06-14T13:44:11;7.15;;;4.38;;
25409;SDS011;13339;50.840;4.346;2023-06-14T13:46:39;6.90;;;4.72;;
25409;SDS011;13339;50.840;4.346;2023-06-14T13:49:05;6.18;;;4.28;;
25409;SDS011;13339;50.840;4.346;2023-06-14T13:51:31;8.05;;;4.38;;
25409;SDS011;13339;50.840;4.346;2023-06-14T13:53:57;12.13;;;4.15;;
25409;SDS011;13339;50.840;4.346;2023-06-14T13:56:22;11.05;;;4.40;;
25409;SDS011;13339;50.840;4.346;2023-06-14T13:58:49;7.90;;;4.07;;
25409;SDS011;13339;50.840;4.346;2023-06-14T14:01:16;10.77;;;4.18;;
25409;SDS011;13339;50.840;4.346;2023-06-14T14:03:43;10.25;;;4.40;;
25409;SDS011;13339;50.840;4.346;2023-06-14T14:06:10;8.70;;;3.90;;
25409;SDS011;13339;50.840;4.346;2023-06-14T14:08:35;5.30;;;3.60;;
25409;SDS011;13339;50.840;4.346;2023-06-14T14:11:01;7.55;;;3.72;;
25409;SDS011;13339;50.840;4.346;2023-06-14T14:13:27;6.72;;;4.22;;
25409;SDS011;13339;50.840;4.346;2023-06-14T14:15:52;7.25;;;3.17;;
25409;SDS011;13339;50.840;4.346;2023-06-14T14:18:19;6.38;;;3.45;;
25409;SDS011;13339;50.840;4.346;2023-06-14T14:20:48;5.93;;;3.20;;
25409;SDS011;13339;50.840;4.346;2023-06-14T14:23:14;8.82;;;3.53;;
25409;SDS011;13339;50.840;4.346;2023-06-14T14:25:39;8.18;;;3.25;;
25409;SDS011;13339;50.840;4.346;2023-06-14T14:28:05;3.50;;;3.00;;
25409;SDS011;13339;50.840;4.346;2023-06-14T14:30:31;5.68;;;3.10;;
25409;SDS011;13339;50.840;4.346;2023-06-14T14:32:56;7.30;;;2.70;;
25409;SDS011;13339;50.840;4.346;2023-06-14T14:35:22;6.97;;;2.78;;
25409;SDS011;13339;50.840;4.346;2023-06-14T14:37:49;6.40;;;2.78;;
25409;SDS011;13339;50.840;4.346;2023-06-14T14:40:15;4.70;;;2.40;;
25409;SDS011;13339;50.840;4.346;2023-06-14T14:42:40;8.45;;;2.60;;
25409;SDS011;13339;50.840;4.346;2023-06-14T14:45:06;6.82;;;2.58;;
25409;SDS011;13339;50.840;4.346;2023-06-14T14:47:32;5.63;;;2.72;;
25409;SDS011;13339;50.840;4.346;2023-06-14T14:49:57;4.93;;;2.70;;